createdAt,value
2018-05-06T00:00:05.858Z,0
2018-05-06T00:01:05.845Z,0
2018-05-06T00:02:05.579Z,0
2018-05-06T00:03:05.556Z,0
2018-05-06T00:04:05.549Z,0
2018-05-06T00:05:05.541Z,0
2018-05-06T00:06:05.543Z,0
2018-05-06T00:07:05.785Z,0
2018-05-06T00:08:05.239Z,0
2018-05-06T00:09:05.746Z,0
2018-05-06T00:10:05.727Z,0
2018-05-06T00:11:05.453Z,0
2018-05-06T00:12:05.701Z,0
2018-05-06T00:13:05.732Z,0
2018-05-06T00:14:05.418Z,0
2018-05-06T00:15:05.407Z,0
2018-05-06T00:16:05.388Z,0
2018-05-06T00:17:05.639Z,0
2018-05-06T00:18:05.638Z,0
2018-05-06T00:19:05.349Z,0
2018-05-06T00:20:05.334Z,0
2018-05-06T00:21:05.322Z,0
2018-05-06T00:22:05.575Z,0
2018-05-06T00:23:05.557Z,0
2018-05-06T00:24:05.548Z,0
2018-05-06T00:25:05.532Z,0
2018-05-06T00:26:05.518Z,0
2018-05-06T00:27:04.986Z,0
2018-05-06T00:28:05.229Z,0
2018-05-06T00:29:05.491Z,0
2018-05-06T00:30:05.205Z,0
2018-05-06T00:31:05.444Z,0
2018-05-06T00:32:05.177Z,0
2018-05-06T00:33:05.164Z,0
2018-05-06T00:34:05.489Z,0
2018-05-06T00:35:05.393Z,0
2018-05-06T00:36:05.120Z,0
2018-05-06T00:37:05.441Z,0
2018-05-06T00:38:05.352Z,0
2018-05-06T00:39:04.823Z,0
2018-05-06T00:40:04.812Z,0
2018-05-06T00:41:04.801Z,0
2018-05-06T00:42:05.301Z,0
2018-05-06T00:43:05.285Z,0
2018-05-06T00:44:04.758Z,0
2018-05-06T00:45:05.002Z,0
2018-05-06T00:46:04.737Z,0
2018-05-06T00:47:04.975Z,0
2018-05-06T00:48:04.959Z,0
2018-05-06T00:49:05.205Z,0
2018-05-06T00:50:04.942Z,0
2018-05-06T00:51:04.670Z,0
2018-05-06T00:52:04.649Z,0
2018-05-06T00:53:04.637Z,0
2018-05-06T00:54:05.136Z,0
2018-05-06T00:55:04.868Z,0
2018-05-06T00:56:04.858Z,0
2018-05-06T00:57:05.098Z,0
2018-05-06T00:58:05.095Z,0
2018-05-06T00:59:04.812Z,0
2018-05-06T01:00:05.059Z,0
2018-05-06T01:01:04.796Z,0
2018-05-06T01:02:04.778Z,0
2018-05-06T01:03:04.506Z,0
2018-05-06T01:04:05.005Z,0
2018-05-06T01:05:04.729Z,0
2018-05-06T01:06:04.726Z,0
2018-05-06T01:07:04.703Z,0
2018-05-06T01:08:04.953Z,0
2018-05-06T01:09:04.687Z,0
2018-05-06T01:10:04.407Z,0
2018-05-06T01:11:04.905Z,0
2018-05-06T01:12:04.902Z,0
2018-05-06T01:13:04.883Z,0
2018-05-06T01:14:04.872Z,0
2018-05-06T01:15:04.851Z,0
2018-05-06T01:16:04.587Z,0
2018-05-06T01:17:04.565Z,0
2018-05-06T01:18:04.554Z,0
2018-05-06T01:19:04.538Z,0
2018-05-06T01:20:04.532Z,0
2018-05-06T01:21:04.516Z,0
2018-05-06T01:22:04.757Z,0
2018-05-06T01:23:04.227Z,0
2018-05-06T01:24:03.956Z,0
2018-05-06T01:25:04.456Z,0
2018-05-06T01:26:03.929Z,0
2018-05-06T01:27:04.427Z,0
2018-05-06T01:28:04.159Z,0
2018-05-06T01:29:04.668Z,0
2018-05-06T01:30:04.130Z,0
2018-05-06T01:31:04.375Z,0
2018-05-06T01:32:04.619Z,0
2018-05-06T01:33:04.617Z,0
2018-05-06T01:34:04.074Z,0
2018-05-06T01:35:04.593Z,0
2018-05-06T01:36:04.302Z,0
2018-05-06T01:37:04.547Z,0
2018-05-06T01:38:04.532Z,0
2018-05-06T01:39:04.264Z,0
2018-05-06T01:40:04.510Z,0
2018-05-06T01:41:03.982Z,0
2018-05-06T01:42:03.974Z,0
2018-05-06T01:43:03.948Z,0
2018-05-06T01:44:03.943Z,0
2018-05-06T01:45:04.449Z,0
2018-05-06T01:46:04.423Z,0
2018-05-06T01:47:04.152Z,0
2018-05-06T01:48:04.148Z,0
2018-05-06T01:49:04.383Z,0
2018-05-06T01:50:04.107Z,0
2018-05-06T01:51:04.103Z,0
2018-05-06T01:52:04.076Z,0
2018-05-06T01:53:04.071Z,0
2018-05-06T01:54:04.058Z,0
2018-05-06T01:55:03.780Z,0
2018-05-06T01:56:04.289Z,0
2018-05-06T01:57:03.498Z,0
2018-05-06T01:58:03.998Z,0
2018-05-06T01:59:04.251Z,0
2018-05-06T02:00:03.969Z,0
2018-05-06T02:01:04.220Z,0
2018-05-06T02:02:03.940Z,0
2018-05-06T02:03:03.669Z,0
2018-05-06T02:04:03.912Z,0
2018-05-06T02:05:04.154Z,0
2018-05-06T02:06:04.146Z,0
2018-05-06T02:07:03.611Z,0
2018-05-06T02:08:03.861Z,0
2018-05-06T02:09:04.100Z,0
2018-05-06T02:10:03.879Z,0
2018-05-06T02:11:03.552Z,0
2018-05-06T02:12:03.890Z,0
2018-05-06T02:13:03.787Z,0
2018-05-06T02:14:03.514Z,0
2018-05-06T02:15:04.012Z,0
2018-05-06T02:16:03.750Z,0
2018-05-06T02:17:03.475Z,0
2018-05-06T02:18:03.982Z,0
2018-05-06T02:19:03.961Z,0
2018-05-06T02:20:03.684Z,0
2018-05-06T02:21:03.670Z,0
2018-05-06T02:22:03.923Z,0
2018-05-06T02:23:03.386Z,0
2018-05-06T02:24:03.894Z,0
2018-05-06T02:25:03.609Z,0
2018-05-06T02:26:03.607Z,0
2018-05-06T02:27:03.584Z,0
2018-05-06T02:28:03.828Z,0
2018-05-06T02:29:03.812Z,0
2018-05-06T02:30:03.033Z,0
2018-05-06T02:31:03.530Z,0
2018-05-06T02:32:03.515Z,0
2018-05-06T02:33:03.505Z,0
2018-05-06T02:34:03.233Z,0
2018-05-06T02:35:03.473Z,0
2018-05-06T02:36:03.719Z,0
2018-05-06T02:37:03.749Z,0
2018-05-06T02:38:03.176Z,0
2018-05-06T02:39:03.183Z,0
2018-05-06T02:40:03.400Z,0
2018-05-06T02:41:03.383Z,0
2018-05-06T02:42:03.623Z,0
2018-05-06T02:43:03.363Z,0
2018-05-06T02:44:03.610Z,0
2018-05-06T02:45:03.584Z,0
2018-05-06T02:46:03.577Z,0
2018-05-06T02:47:03.044Z,0
2018-05-06T02:48:03.038Z,0
2018-05-06T02:49:03.014Z,0
2018-05-06T02:50:03.513Z,0
2018-05-06T02:51:03.019Z,0
2018-05-06T02:52:03.229Z,0
2018-05-06T02:53:03.212Z,0
2018-05-06T02:54:03.211Z,0
2018-05-06T02:55:03.185Z,0
2018-05-06T02:56:02.916Z,0
2018-05-06T02:57:03.152Z,0
2018-05-06T02:58:03.143Z,0
2018-05-06T02:59:03.379Z,0
2018-05-06T03:00:03.103Z,0
2018-05-06T03:01:02.839Z,4
2018-05-06T03:02:03.338Z,4
2018-05-06T03:03:02.809Z,0
2018-05-06T03:04:03.050Z,0
2018-05-06T03:05:03.036Z,4
2018-05-06T03:06:03.018Z,4
2018-05-06T03:07:03.004Z,4
2018-05-06T03:08:02.989Z,4
2018-05-06T03:09:02.977Z,4
2018-05-06T03:10:02.708Z,8
2018-05-06T03:11:02.945Z,8
2018-05-06T03:12:02.932Z,8
2018-05-06T03:13:02.660Z,8
2018-05-06T03:14:02.655Z,12
2018-05-06T03:15:02.888Z,12
2018-05-06T03:17:03.126Z,16
2018-05-06T03:18:03.109Z,20
2018-05-06T03:19:02.887Z,24
2018-05-06T03:20:03.079Z,24
2018-05-06T03:21:02.812Z,32
2018-05-06T03:22:03.044Z,32
2018-05-06T03:23:03.039Z,40
2018-05-06T03:24:02.760Z,48
2018-05-06T03:25:03.007Z,52
2018-05-06T03:26:02.989Z,56
2018-05-06T03:27:02.715Z,64
2018-05-06T03:28:02.702Z,72
2018-05-06T03:29:02.682Z,84
2018-05-06T03:30:02.437Z,92
2018-05-06T03:31:02.658Z,104
2018-05-06T03:32:02.640Z,116
2018-05-06T03:33:02.625Z,124
2018-05-06T03:34:02.868Z,136
2018-05-06T03:35:02.856Z,152
2018-05-06T03:36:02.589Z,168
2018-05-06T03:37:02.310Z,180
2018-05-06T03:38:02.810Z,196
2018-05-06T03:39:02.539Z,216
2018-05-06T03:40:02.779Z,232
2018-05-06T03:41:02.766Z,252
2018-05-06T03:42:02.239Z,272
2018-05-06T03:43:02.752Z,292
2018-05-06T03:44:02.207Z,308
2018-05-06T03:45:02.457Z,332
2018-05-06T03:46:02.443Z,352
2018-05-06T03:47:02.429Z,376
2018-05-06T03:48:02.413Z,400
2018-05-06T03:49:02.653Z,424
2018-05-06T03:50:02.646Z,448
2018-05-06T03:51:02.374Z,472
2018-05-06T03:52:02.104Z,496
2018-05-06T03:53:02.594Z,520
2018-05-06T03:54:02.575Z,548
2018-05-06T03:55:02.566Z,572
2018-05-06T03:56:02.287Z,596
2018-05-06T03:57:02.277Z,624
2018-05-06T03:58:02.006Z,644
2018-05-06T03:59:02.502Z,668
2018-05-06T04:00:02.489Z,692
2018-05-06T04:01:02.487Z,720
2018-05-06T04:02:02.204Z,748
2018-05-06T04:03:01.928Z,772
2018-05-06T04:04:02.176Z,796
2018-05-06T04:05:02.160Z,816
2018-05-06T04:06:02.148Z,844
2018-05-06T04:07:02.137Z,868
2018-05-06T04:08:02.120Z,892
2018-05-06T04:09:02.364Z,912
2018-05-06T04:10:02.365Z,940
2018-05-06T04:11:02.334Z,964
2018-05-06T04:12:02.391Z,984
2018-05-06T04:13:02.301Z,1008
2018-05-06T04:14:02.286Z,1028
2018-05-06T04:15:01.757Z,1052
2018-05-06T04:16:02.000Z,1072
2018-05-06T04:17:02.244Z,1096
2018-05-06T04:18:01.977Z,1116
2018-05-06T04:19:01.701Z,1140
2018-05-06T04:20:01.685Z,1160
2018-05-06T04:21:01.925Z,1176
2018-05-06T04:22:01.656Z,1200
2018-05-06T04:23:02.162Z,1216
2018-05-06T04:24:02.145Z,1236
2018-05-06T04:25:02.137Z,1256
2018-05-06T04:26:02.121Z,1276
2018-05-06T04:27:02.075Z,1292
2018-05-06T04:28:01.832Z,1316
2018-05-06T04:29:01.813Z,1332
2018-05-06T04:30:02.079Z,1352
2018-05-06T04:31:01.788Z,1372
2018-05-06T04:32:01.771Z,1388
2018-05-06T04:33:02.017Z,1408
2018-05-06T04:34:01.484Z,1424
2018-05-06T04:35:01.726Z,1440
2018-05-06T04:36:01.972Z,1456
2018-05-06T04:37:01.702Z,1476
2018-05-06T04:38:01.684Z,1488
2018-05-06T04:39:01.669Z,1504
2018-05-06T04:40:01.914Z,1520
2018-05-06T04:41:01.640Z,1540
2018-05-06T04:42:01.882Z,1552
2018-05-06T04:43:01.612Z,1568
2018-05-06T04:44:01.857Z,1584
2018-05-06T04:45:01.584Z,1596
2018-05-06T04:46:01.569Z,1612
2018-05-06T04:47:01.558Z,1628
2018-05-06T04:48:01.280Z,1640
2018-05-06T04:49:01.269Z,1656
2018-05-06T04:50:01.001Z,1668
2018-05-06T04:51:01.497Z,1680
2018-05-06T04:52:01.756Z,1692
2018-05-06T04:53:01.469Z,1708
2018-05-06T04:54:01.715Z,1720
2018-05-06T04:55:01.455Z,1732
2018-05-06T04:56:01.683Z,1744
2018-05-06T04:57:01.423Z,1756
2018-05-06T04:58:01.400Z,1768
2018-05-06T04:59:01.131Z,1780
2018-05-06T05:00:01.631Z,1792
2018-05-06T05:01:01.358Z,1808
2018-05-06T05:02:01.607Z,1816
2018-05-06T05:03:01.073Z,1828
2018-05-06T05:04:01.576Z,1840
2018-05-06T05:05:01.562Z,1852
2018-05-06T05:06:01.543Z,1864
2018-05-06T05:07:01.277Z,1876
2018-05-06T05:08:01.519Z,1888
2018-05-06T05:09:01.250Z,1904
2018-05-06T05:10:01.237Z,1916
2018-05-06T05:11:01.473Z,1928
2018-05-06T05:12:01.465Z,1940
2018-05-06T05:13:01.450Z,1952
2018-05-06T05:14:00.922Z,1960
2018-05-06T05:15:00.906Z,1976
2018-05-06T05:16:01.411Z,1988
2018-05-06T05:17:01.403Z,1996
2018-05-06T05:18:01.380Z,2008
2018-05-06T05:19:01.370Z,2016
2018-05-06T05:20:01.108Z,2024
2018-05-06T05:21:01.444Z,2036
2018-05-06T05:22:01.071Z,2040
2018-05-06T05:23:01.066Z,2052
2018-05-06T05:24:01.046Z,2060
2018-05-06T05:25:01.050Z,2068
2018-05-06T05:26:01.017Z,2076
2018-05-06T05:27:01.007Z,2088
2018-05-06T05:28:01.256Z,2092
2018-05-06T05:29:01.237Z,2104
2018-05-06T05:30:00.964Z,2112
2018-05-06T05:31:01.212Z,2120
2018-05-06T05:32:00.949Z,2124
2018-05-06T05:33:01.184Z,2132
2018-05-06T05:34:00.918Z,2136
2018-05-06T05:35:01.170Z,2144
2018-05-06T05:36:01.143Z,2148
2018-05-06T05:37:01.136Z,2152
2018-05-06T05:38:01.120Z,2160
2018-05-06T05:39:00.848Z,2164
2018-05-06T05:40:01.094Z,2172
2018-05-06T05:41:00.824Z,2180
2018-05-06T05:42:00.811Z,2188
2018-05-06T05:43:00.798Z,2192
2018-05-06T05:44:01.045Z,2196
2018-05-06T05:45:01.048Z,2204
2018-05-06T05:46:00.766Z,2204
2018-05-06T05:47:01.011Z,2212
2018-05-06T05:48:00.991Z,2220
2018-05-06T05:49:00.722Z,2224
2018-05-06T05:50:00.725Z,2232
2018-05-06T05:51:00.441Z,2240
2018-05-06T05:52:00.944Z,2244
2018-05-06T05:53:00.931Z,2252
2018-05-06T05:54:00.930Z,2256
2018-05-06T05:55:00.922Z,2264
2018-05-06T05:56:00.640Z,2268
2018-05-06T05:57:00.879Z,2276
2018-05-06T05:58:00.684Z,2284
2018-05-06T05:59:00.601Z,2288
2018-05-06T06:00:00.338Z,2296
2018-05-06T06:01:00.576Z,2304
2018-05-06T06:02:00.567Z,2308
2018-05-06T06:03:00.559Z,2316
2018-05-06T06:04:00.290Z,2324
2018-05-06T06:05:00.792Z,2336
2018-05-06T06:06:00.518Z,2348
2018-05-06T06:07:00.765Z,2356
2018-05-06T06:08:00.750Z,2364
2018-05-06T06:09:00.225Z,2372
2018-05-06T06:10:00.475Z,2392
2018-05-06T06:11:00.203Z,2400
2018-05-06T06:12:00.777Z,2408
2018-05-06T06:13:00.470Z,2416
2018-05-06T06:14:00.681Z,2420
2018-05-06T06:15:00.155Z,2436
2018-05-06T06:16:00.659Z,2440
2018-05-06T06:17:00.392Z,2448
2018-05-06T06:18:00.130Z,2460
2018-05-06T06:19:00.621Z,2464
2018-05-06T06:20:00.358Z,2476
2018-05-06T06:21:00.602Z,2488
2018-05-06T06:22:00.595Z,2508
2018-05-06T06:23:00.322Z,2528
2018-05-06T06:24:00.309Z,2552
2018-05-06T06:25:00.561Z,2596
2018-05-06T06:26:00.288Z,2616
2018-05-06T06:27:00.540Z,2648
2018-05-06T06:28:00.270Z,2988
2018-05-06T06:29:00.258Z,3976
2018-05-06T06:30:00.500Z,4124
2018-05-06T06:30:59.981Z,3728
2018-05-06T06:32:00.551Z,3604
2018-05-06T06:33:00.177Z,5300
2018-05-06T06:34:00.202Z,4648
2018-05-06T06:35:00.201Z,15072
2018-05-06T06:36:00.456Z,15432
2018-05-06T06:37:00.169Z,4084
2018-05-06T06:38:00.418Z,4652
2018-05-06T06:38:59.893Z,6492
2018-05-06T06:40:00.397Z,14516
2018-05-06T06:41:00.133Z,20768
2018-05-06T06:42:00.118Z,20160
2018-05-06T06:43:00.366Z,26304
2018-05-06T06:43:59.846Z,36128
2018-05-06T06:45:00.350Z,40000
2018-05-06T06:46:00.351Z,34560
2018-05-06T06:47:00.074Z,37408
2018-05-06T06:48:00.211Z,41696
2018-05-06T06:49:00.062Z,41920
2018-05-06T06:49:59.792Z,43488
2018-05-06T06:50:59.790Z,44416
2018-05-06T06:52:00.034Z,42112
2018-05-06T06:52:59.772Z,38304
2018-05-06T06:53:59.765Z,37440
2018-05-06T06:55:00.014Z,40416
2018-05-06T06:56:00.011Z,41920
2018-05-06T06:56:59.751Z,39840
2018-05-06T06:57:59.746Z,38144
2018-05-06T06:58:59.997Z,36736
2018-05-06T06:59:59.737Z,36064
2018-05-06T07:01:00.249Z,35584
2018-05-06T07:01:59.471Z,37024
2018-05-06T07:02:59.732Z,39520
2018-05-06T07:04:00.259Z,41344
2018-05-06T07:05:00.239Z,41888
2018-05-06T07:06:00.337Z,46976
2018-05-06T07:06:59.981Z,48096
2018-05-06T07:07:59.972Z,47200
2018-05-06T07:08:59.712Z,47968
2018-05-06T07:09:59.964Z,47648
2018-05-06T07:10:59.967Z,44320
2018-05-06T07:11:59.721Z,44832
2018-05-06T07:12:59.965Z,45504
2018-05-06T07:13:59.970Z,43392
2018-05-06T07:14:59.968Z,43104
2018-05-06T07:16:00.226Z,46080
2018-05-06T07:16:59.979Z,45600
2018-05-06T07:17:59.710Z,41312
2018-05-06T07:18:59.965Z,42912
2018-05-06T07:19:59.968Z,46272
2018-05-06T07:20:59.976Z,45536
2018-05-06T07:21:59.714Z,44960
2018-05-06T07:22:59.973Z,45632
2018-05-06T07:23:59.457Z,47040
2018-05-06T07:25:00.064Z,35616
2018-05-06T07:26:00.236Z,14896
2018-05-06T07:26:59.974Z,6056
2018-05-06T07:27:59.979Z,5208
2018-05-06T07:28:59.980Z,4728
2018-05-06T07:30:00.143Z,4396
2018-05-06T07:30:59.987Z,4156
2018-05-06T07:31:59.991Z,3984
2018-05-06T07:32:59.733Z,3840
2018-05-06T07:33:59.474Z,3712
2018-05-06T07:35:00.067Z,3604
2018-05-06T07:36:00.407Z,3512
2018-05-06T07:37:00.268Z,3432
2018-05-06T07:38:00.253Z,3388
2018-05-06T07:38:59.740Z,3356
2018-05-06T07:40:00.258Z,3340
2018-05-06T07:41:00.014Z,3340
2018-05-06T07:42:00.003Z,3336
2018-05-06T07:42:59.999Z,3320
2018-05-06T07:44:00.264Z,3308
2018-05-06T07:45:00.014Z,3308
2018-05-06T07:46:00.258Z,3304
2018-05-06T07:46:59.753Z,3292
2018-05-06T07:47:59.748Z,3292
2018-05-06T07:49:00.068Z,3276
2018-05-06T07:49:59.751Z,3264
2018-05-06T07:51:00.008Z,3248
2018-05-06T07:52:00.009Z,3240
2018-05-06T07:53:00.004Z,3220
2018-05-06T07:54:00.022Z,3224
2018-05-06T07:55:00.265Z,3224
2018-05-06T07:56:00.265Z,3216
2018-05-06T07:56:59.755Z,3232
2018-05-06T07:58:00.007Z,3208
2018-05-06T07:58:59.850Z,3200
2018-05-06T08:00:00.278Z,3196
2018-05-06T08:00:59.488Z,3196
2018-05-06T08:02:00.256Z,3200
2018-05-06T08:02:59.998Z,3192
2018-05-06T08:03:59.886Z,3196
2018-05-06T08:05:00.254Z,3192
2018-05-06T08:05:59.991Z,3180
2018-05-06T08:07:00.248Z,3176
2018-05-06T08:08:00.242Z,3180
2018-05-06T08:09:00.057Z,3184
2018-05-06T08:09:59.988Z,3188
2018-05-06T08:11:00.200Z,3188
2018-05-06T08:12:00.242Z,3172
2018-05-06T08:12:59.989Z,3172
2018-05-06T08:13:59.979Z,3164
2018-05-06T08:14:59.968Z,3160
2018-05-06T08:15:59.965Z,3172
2018-05-06T08:16:59.976Z,3156
2018-05-06T08:17:59.960Z,3148
2018-05-06T08:18:59.962Z,3144
2018-05-06T08:19:59.958Z,3140
2018-05-06T08:21:00.017Z,3144
2018-05-06T08:22:00.113Z,3148
2018-05-06T08:23:00.206Z,3144
2018-05-06T08:23:59.944Z,3156
2018-05-06T08:24:59.941Z,3144
2018-05-06T08:25:59.932Z,3128
2018-05-06T08:27:00.195Z,3128
2018-05-06T08:27:59.930Z,3116
2018-05-06T08:29:00.195Z,3112
2018-05-06T08:29:59.666Z,3108
2018-05-06T08:30:59.915Z,3104
2018-05-06T08:31:59.664Z,3092
2018-05-06T08:33:00.179Z,3096
2018-05-06T08:33:59.652Z,3080
2018-05-06T08:35:00.167Z,3076
2018-05-06T08:35:59.910Z,3068
2018-05-06T08:36:59.896Z,3060
2018-05-06T08:37:59.891Z,3064
2018-05-06T08:38:59.630Z,3056
2018-05-06T08:39:59.891Z,3044
2018-05-06T08:41:00.138Z,3040
2018-05-06T08:41:59.877Z,3032
2018-05-06T08:43:00.139Z,3020
2018-05-06T08:43:59.618Z,3008
2018-05-06T08:45:00.133Z,3008
2018-05-06T08:46:00.006Z,3012
2018-05-06T08:46:59.868Z,3012
2018-05-06T08:47:59.856Z,3012
2018-05-06T08:48:59.858Z,3016
2018-05-06T08:49:59.867Z,3012
2018-05-06T08:50:59.861Z,3004
2018-05-06T08:51:59.583Z,3000
2018-05-06T08:52:59.585Z,2996
2018-05-06T08:53:59.585Z,2984
2018-05-06T08:54:59.835Z,2976
2018-05-06T08:55:59.316Z,2976
2018-05-06T08:56:59.833Z,2964
2018-05-06T08:57:59.829Z,2956
2018-05-06T08:59:00.085Z,2960
2018-05-06T09:00:00.074Z,2952
2018-05-06T09:00:59.819Z,2952
2018-05-06T09:01:59.812Z,2944
2018-05-06T09:02:59.808Z,2936
2018-05-06T09:03:59.804Z,2936
2018-05-06T09:04:59.543Z,2936
2018-05-06T09:06:00.061Z,2936
2018-05-06T09:06:59.788Z,2932
2018-05-06T09:08:00.047Z,2936
2018-05-06T09:08:59.793Z,2940
2018-05-06T09:09:59.782Z,2944
2018-05-06T09:11:00.100Z,2948
2018-05-06T09:11:59.781Z,2944
2018-05-06T09:13:00.032Z,2932
2018-05-06T09:13:59.252Z,2928
2018-05-06T09:14:59.768Z,2932
2018-05-06T09:15:59.760Z,2928
2018-05-06T09:17:00.022Z,2904
2018-05-06T09:18:00.020Z,2892
2018-05-06T09:19:00.011Z,2896
2018-05-06T09:19:59.972Z,2892
2018-05-06T09:21:00.010Z,2888
2018-05-06T09:21:59.742Z,2892
2018-05-06T09:22:59.998Z,2896
2018-05-06T09:23:59.742Z,2900
2018-05-06T09:24:59.732Z,2912
2018-05-06T09:25:59.994Z,2928
2018-05-06T09:26:59.468Z,2940
2018-05-06T09:27:59.205Z,2944
2018-05-06T09:28:59.977Z,2948
2018-05-06T09:29:59.715Z,2964
2018-05-06T09:30:59.454Z,2992
2018-05-06T09:31:59.711Z,2968
2018-05-06T09:32:59.707Z,2960
2018-05-06T09:33:59.442Z,2960
2018-05-06T09:34:59.967Z,2968
2018-05-06T09:35:59.697Z,2964
2018-05-06T09:36:59.951Z,2980
2018-05-06T09:37:59.947Z,3000
2018-05-06T09:38:59.688Z,3004
2018-05-06T09:39:59.687Z,3008
2018-05-06T09:40:59.423Z,3016
2018-05-06T09:41:59.424Z,3012
2018-05-06T09:42:59.936Z,3004
2018-05-06T09:43:59.929Z,3000
2018-05-06T09:44:59.670Z,2992
2018-05-06T09:45:59.920Z,2988
2018-05-06T09:46:59.660Z,2988
2018-05-06T09:47:59.145Z,2996
2018-05-06T09:48:59.395Z,2996
2018-05-06T09:49:59.648Z,3004
2018-05-06T09:50:59.643Z,3004
2018-05-06T09:51:59.909Z,2996
2018-05-06T09:52:59.899Z,2988
2018-05-06T09:53:59.978Z,2996
2018-05-06T09:54:59.644Z,2992
2018-05-06T09:55:59.630Z,2984
2018-05-06T09:56:59.627Z,2976
2018-05-06T09:57:59.882Z,2980
2018-05-06T09:58:59.874Z,2988
2018-05-06T09:59:59.621Z,3000
2018-05-06T10:00:59.357Z,2976
2018-05-06T10:01:59.615Z,2952
2018-05-06T10:02:59.617Z,2960
2018-05-06T10:03:59.603Z,2956
2018-05-06T10:04:59.675Z,2948
2018-05-06T10:05:59.600Z,2940
2018-05-06T10:06:59.851Z,2932
2018-05-06T10:07:59.334Z,2924
2018-05-06T10:08:59.588Z,2924
2018-05-06T10:09:59.847Z,2924
2018-05-06T10:10:59.837Z,2924
2018-05-06T10:11:59.836Z,2936
2018-05-06T10:12:59.319Z,2932
2018-05-06T10:13:59.574Z,2928
2018-05-06T10:14:59.321Z,2924
2018-05-06T10:15:59.403Z,2920
2018-05-06T10:16:59.306Z,2920
2018-05-06T10:17:59.818Z,2912
2018-05-06T10:18:59.555Z,2908
2018-05-06T10:19:59.298Z,2908
2018-05-06T10:20:59.803Z,2904
2018-05-06T10:21:59.813Z,2900
2018-05-06T10:22:59.796Z,2896
2018-05-06T10:23:59.541Z,2892
2018-05-06T10:24:59.824Z,2892
2018-05-06T10:25:59.281Z,2892
2018-05-06T10:26:59.274Z,2888
2018-05-06T10:27:59.536Z,2880
2018-05-06T10:28:59.267Z,2884
2018-05-06T10:29:59.525Z,2880
2018-05-06T10:30:59.782Z,2872
2018-05-06T10:31:59.772Z,2868
2018-05-06T10:32:59.859Z,2864
2018-05-06T10:33:59.252Z,2848
2018-05-06T10:34:59.518Z,2840
2018-05-06T10:35:59.500Z,2836
2018-05-06T10:36:59.497Z,2828
2018-05-06T10:37:58.980Z,2820
2018-05-06T10:38:59.749Z,2816
2018-05-06T10:39:59.488Z,2812
2018-05-06T10:40:59.230Z,2804
2018-05-06T10:41:59.488Z,2792
2018-05-06T10:42:59.481Z,2784
2018-05-06T10:43:59.061Z,2764
2018-05-06T10:44:59.219Z,2752
2018-05-06T10:45:59.497Z,2756
2018-05-06T10:46:59.222Z,2764
2018-05-06T10:47:59.467Z,2768
2018-05-06T10:48:59.287Z,2764
2018-05-06T10:49:58.944Z,2764
2018-05-06T10:51:00.038Z,2756
2018-05-06T10:51:59.197Z,2756
2018-05-06T10:52:59.705Z,2756
2018-05-06T10:53:59.701Z,2756
2018-05-06T10:54:59.441Z,2756
2018-05-06T10:55:59.695Z,2748
2018-05-06T10:56:59.691Z,2744
2018-05-06T10:57:59.324Z,2748
2018-05-06T10:58:59.442Z,2748
2018-05-06T10:59:59.424Z,2748
2018-05-06T11:00:59.167Z,2744
2018-05-06T11:01:59.420Z,2752
2018-05-06T11:02:59.414Z,2756
2018-05-06T11:03:59.517Z,2760
2018-05-06T11:04:59.665Z,2760
2018-05-06T11:05:59.417Z,2756
2018-05-06T11:06:59.404Z,2748
2018-05-06T11:07:59.666Z,2752
2018-05-06T11:08:59.653Z,2748
2018-05-06T11:09:59.136Z,2752
2018-05-06T11:10:59.647Z,2752
2018-05-06T11:11:59.388Z,2748
2018-05-06T11:12:59.386Z,2748
2018-05-06T11:13:59.387Z,2732
2018-05-06T11:14:59.377Z,2728
2018-05-06T11:15:59.634Z,2720
2018-05-06T11:16:59.634Z,2720
2018-05-06T11:17:59.489Z,2720
2018-05-06T11:18:59.365Z,2720
2018-05-06T11:19:59.619Z,2732
2018-05-06T11:20:59.359Z,2724
2018-05-06T11:21:59.614Z,2728
2018-05-06T11:22:59.614Z,2724
2018-05-06T11:23:59.366Z,2708
2018-05-06T11:24:59.345Z,2764
2018-05-06T11:25:59.606Z,2704
2018-05-06T11:26:59.343Z,2692
2018-05-06T11:27:59.342Z,2688
2018-05-06T11:28:59.595Z,2680
2018-05-06T11:29:59.587Z,2668
2018-05-06T11:30:59.585Z,2664
2018-05-06T11:31:59.328Z,2660
2018-05-06T11:32:59.580Z,2656
2018-05-06T11:33:59.580Z,2656
2018-05-06T11:34:59.320Z,2652
2018-05-06T11:35:59.058Z,2648
2018-05-06T11:36:59.053Z,2648
2018-05-06T11:37:59.616Z,2652
2018-05-06T11:38:59.562Z,2648
2018-05-06T11:39:59.300Z,2640
2018-05-06T11:40:59.165Z,2636
2018-05-06T11:41:59.552Z,2632
2018-05-06T11:42:59.551Z,2632
2018-05-06T11:43:59.032Z,2632
2018-05-06T11:44:59.551Z,2632
2018-05-06T11:45:59.548Z,2628
2018-05-06T11:46:59.026Z,2620
2018-05-06T11:47:59.579Z,2616
2018-05-06T11:48:59.528Z,2608
2018-05-06T11:49:59.523Z,2600
2018-05-06T11:50:59.523Z,2608
2018-05-06T11:51:59.530Z,2608
2018-05-06T11:52:59.274Z,2600
2018-05-06T11:53:59.521Z,2600
2018-05-06T11:54:59.261Z,2600
2018-05-06T11:55:59.512Z,2608
2018-05-06T11:56:59.259Z,2608
2018-05-06T11:57:59.501Z,2608
2018-05-06T11:58:59.243Z,2608
2018-05-06T11:59:59.493Z,2612
2018-05-06T12:00:59.501Z,2620
2018-05-06T12:01:59.236Z,2628
2018-05-06T12:02:59.493Z,2632
2018-05-06T12:03:59.228Z,2640
2018-05-06T12:04:59.238Z,2652
2018-05-06T12:05:59.221Z,2660
2018-05-06T12:06:59.223Z,2664
2018-05-06T12:07:59.251Z,2660
2018-05-06T12:08:58.968Z,2660
2018-05-06T12:09:59.232Z,2672
2018-05-06T12:10:59.206Z,2668
2018-05-06T12:11:59.204Z,2676
2018-05-06T12:12:59.466Z,2676
2018-05-06T12:13:59.205Z,2684
2018-05-06T12:14:59.201Z,2692
2018-05-06T12:15:59.381Z,2680
2018-05-06T12:16:59.193Z,2672
2018-05-06T12:17:59.449Z,2648
2018-05-06T12:18:59.183Z,2648
2018-05-06T12:19:58.925Z,2672
2018-05-06T12:20:59.181Z,2676
2018-05-06T12:21:59.570Z,2684
2018-05-06T12:22:59.177Z,2672
2018-05-06T12:23:59.539Z,2660
2018-05-06T12:24:59.167Z,2660
2018-05-06T12:25:59.425Z,2640
2018-05-06T12:26:59.160Z,2620
2018-05-06T12:27:58.901Z,2620
2018-05-06T12:28:59.411Z,2652
2018-05-06T12:29:59.151Z,2664
2018-05-06T12:30:59.405Z,2664
2018-05-06T12:31:59.405Z,2660
2018-05-06T12:32:58.888Z,2632
2018-05-06T12:33:59.142Z,2604
2018-05-06T12:34:59.395Z,2600
2018-05-06T12:35:59.141Z,2584
2018-05-06T12:36:58.878Z,2576
2018-05-06T12:37:59.131Z,2580
2018-05-06T12:38:59.128Z,2576
2018-05-06T12:39:59.386Z,2556
2018-05-06T12:40:59.133Z,2548
2018-05-06T12:41:59.132Z,2556
2018-05-06T12:42:59.115Z,2568
2018-05-06T12:43:59.371Z,2576
2018-05-06T12:44:59.366Z,2572
2018-05-06T12:45:59.379Z,2568
2018-05-06T12:46:59.359Z,2560
2018-05-06T12:47:58.841Z,2548
2018-05-06T12:48:59.098Z,2548
2018-05-06T12:49:59.356Z,2548
2018-05-06T12:50:59.350Z,2560
2018-05-06T12:51:59.343Z,2576
2018-05-06T12:52:59.083Z,2572
2018-05-06T12:53:59.343Z,2568
2018-05-06T12:54:59.078Z,2572
2018-05-06T12:55:58.818Z,2580
2018-05-06T12:56:59.339Z,2568
2018-05-06T12:57:59.335Z,2556
2018-05-06T12:58:59.324Z,2556
2018-05-06T12:59:59.065Z,2548
2018-05-06T13:00:58.804Z,2544
2018-05-06T13:01:59.058Z,2540
2018-05-06T13:02:59.314Z,2544
2018-05-06T13:03:59.052Z,2540
2018-05-06T13:04:59.054Z,2536
2018-05-06T13:05:58.799Z,2532
2018-05-06T13:06:58.789Z,2528
2018-05-06T13:07:59.305Z,2536
2018-05-06T13:08:59.046Z,2524
2018-05-06T13:09:58.526Z,2512
2018-05-06T13:10:59.035Z,2500
2018-05-06T13:11:59.034Z,2488
2018-05-06T13:12:59.306Z,2488
2018-05-06T13:13:58.773Z,2496
2018-05-06T13:14:58.764Z,2500
2018-05-06T13:15:59.277Z,2504
2018-05-06T13:16:59.021Z,2500
2018-05-06T13:17:58.501Z,2480
2018-05-06T13:18:58.753Z,2468
2018-05-06T13:19:58.753Z,2456
2018-05-06T13:20:59.259Z,2440
2018-05-06T13:21:59.269Z,2440
2018-05-06T13:22:59.013Z,2444
2018-05-06T13:23:59.295Z,2452
2018-05-06T13:24:58.991Z,2460
2018-05-06T13:25:58.989Z,2476
2018-05-06T13:26:58.730Z,2472
2018-05-06T13:27:59.239Z,2480
2018-05-06T13:28:58.979Z,2484
2018-05-06T13:29:59.238Z,2476
2018-05-06T13:30:58.979Z,2476
2018-05-06T13:31:59.235Z,2468
2018-05-06T13:32:58.966Z,2460
2018-05-06T13:33:58.966Z,2460
2018-05-06T13:34:59.222Z,2452
2018-05-06T13:35:59.220Z,2448
2018-05-06T13:36:58.698Z,2448
2018-05-06T13:37:58.960Z,2456
2018-05-06T13:38:59.207Z,2472